createdAt,value
2023-03-21T00:01:30.008Z,9.00
2023-03-21T00:03:56.871Z,9.00
2023-03-21T00:06:24.022Z,9.00
2023-03-21T00:08:51.020Z,9.10
2023-03-21T00:11:17.718Z,9.20
2023-03-21T00:13:44.456Z,9.20
2023-03-21T00:16:21.159Z,9.20
2023-03-21T00:18:53.968Z,9.10
2023-03-21T00:21:41.010Z,9.10
2023-03-21T00:24:09.431Z,9.00
2023-03-21T00:26:36.361Z,8.90
2023-03-21T00:29:03.094Z,9.00
2023-03-21T00:31:29.865Z,9.00
2023-03-21T00:33:57.109Z,8.90
2023-03-21T00:36:26.112Z,8.60
2023-03-21T00:38:53.377Z,8.60
2023-03-21T00:41:35.165Z,8.50
2023-03-21T00:44:07.004Z,8.30
2023-03-21T00:46:45.189Z,8.30
2023-03-21T00:49:16.108Z,8.40
2023-03-21T00:51:43.814Z,8.40
2023-03-21T00:54:12.674Z,8.50
2023-03-21T00:56:39.394Z,8.50
2023-03-21T00:59:06.415Z,8.50
2023-03-21T01:01:33.273Z,8.40
2023-03-21T01:04:05.698Z,8.40
2023-03-21T01:06:39.453Z,8.50
2023-03-21T01:09:08.112Z,8.50
2023-03-21T01:11:35.354Z,8.40
2023-03-21T01:14:18.712Z,8.50
2023-03-21T01:16:48.242Z,8.50
2023-03-21T01:19:26.288Z,8.60
2023-03-21T01:21:55.441Z,8.50
2023-03-21T01:24:22.630Z,8.40
2023-03-21T01:26:49.521Z,8.40
2023-03-21T01:29:16.261Z,8.40
2023-03-21T01:31:43.045Z,8.40
2023-03-21T01:34:09.771Z,8.30
2023-03-21T01:36:37.043Z,8.30
2023-03-21T01:39:06.186Z,8.30
2023-03-21T01:41:42.875Z,8.30
2023-03-21T01:44:20.076Z,8.40
2023-03-21T01:47:11.403Z,8.50
2023-03-21T01:49:46.456Z,8.50
2023-03-21T01:52:29.756Z,8.40
2023-03-21T01:55:04.639Z,8.40
2023-03-21T01:57:43.792Z,8.40
2023-03-21T02:00:16.947Z,8.40
2023-03-21T02:02:52.565Z,8.40
2023-03-21T02:05:26.611Z,8.40
2023-03-21T02:07:53.339Z,8.30
2023-03-21T02:10:20.640Z,8.20
2023-03-21T02:12:47.790Z,8.30
2023-03-21T02:15:16.083Z,8.10
2023-03-21T02:17:52.369Z,8.10
2023-03-21T02:20:31.100Z,8.10
2023-03-21T02:23:10.113Z,8.10
2023-03-21T02:25:48.968Z,8.10
2023-03-21T02:28:51.434Z,8.10
2023-03-21T02:31:28.364Z,8.10
2023-03-21T02:34:19.924Z,8.00
2023-03-21T02:37:38.558Z,7.90
2023-03-21T02:40:11.344Z,7.80
2023-03-21T02:43:09.322Z,7.70
2023-03-21T02:46:05.723Z,7.40
2023-03-21T02:48:56.313Z,7.30
2023-03-21T02:51:25.416Z,7.10
2023-03-21T02:54:34.871Z,7.20
2023-03-21T02:57:06.264Z,7.40
2023-03-21T02:59:39.424Z,7.10
2023-03-21T03:02:08.671Z,7.10
2023-03-21T03:04:35.663Z,7.10
2023-03-21T03:07:19.551Z,7.00
2023-03-21T03:10:01.591Z,7.00
2023-03-21T03:12:43.039Z,6.90
2023-03-21T03:15:33.557Z,6.80
2023-03-21T03:18:25.084Z,6.70
2023-03-21T03:21:15.696Z,6.60
2023-03-21T03:23:55.699Z,6.70
2023-03-21T03:26:31.729Z,6.70
2023-03-21T03:29:04.375Z,6.60
2023-03-21T03:31:36.389Z,6.60
2023-03-21T03:34:10.521Z,6.50
2023-03-21T03:36:42.010Z,6.40
2023-03-21T03:39:11.837Z,6.40
2023-03-21T03:42:07.494Z,6.60
2023-03-21T03:44:33.432Z,6.80
2023-03-21T03:47:06.418Z,6.90
2023-03-21T03:49:38.240Z,7.00
2023-03-21T03:52:16.328Z,7.00
2023-03-21T03:54:46.391Z,7.00
2023-03-21T03:57:14.032Z,7.00
2023-03-21T03:59:44.248Z,6.90
2023-03-21T04:02:11.595Z,6.90
2023-03-21T04:04:38.981Z,6.90
2023-03-21T04:07:06.510Z,6.90
2023-03-21T04:09:43.740Z,6.90
2023-03-21T04:12:12.962Z,6.90
2023-03-21T04:14:45.765Z,6.80
2023-03-21T04:17:13.977Z,6.80
2023-03-21T04:19:40.717Z,6.80
2023-03-21T04:22:07.496Z,6.80
2023-03-21T04:24:34.358Z,6.90
2023-03-21T04:27:01.250Z,6.80
2023-03-21T04:29:29.852Z,6.90
2023-03-21T04:31:56.850Z,6.90
2023-03-21T04:34:28.266Z,6.90
2023-03-21T04:36:57.696Z,6.90
2023-03-21T04:39:25.129Z,6.90
2023-03-21T04:41:52.243Z,6.90
2023-03-21T04:44:19.193Z,6.80
2023-03-21T04:46:46.036Z,6.80
2023-03-21T04:49:12.853Z,6.80
2023-03-21T04:51:40.071Z,6.80
2023-03-21T04:56:36.143Z,6.80
2023-03-21T04:59:08.459Z,6.80
2023-03-21T05:01:35.193Z,6.80
2023-03-21T05:04:02.905Z,6.70
2023-03-21T05:06:30.658Z,6.70
2023-03-21T05:09:00.163Z,6.70
2023-03-21T05:11:28.436Z,6.70
2023-03-21T05:13:55.156Z,6.70
2023-03-21T05:16:25.610Z,6.70
2023-03-21T05:18:54.775Z,6.60
2023-03-21T05:21:22.911Z,6.60
2023-03-21T05:23:54.226Z,6.60
2023-03-21T05:26:23.149Z,6.60
2023-03-21T05:28:50.072Z,6.60
2023-03-21T05:31:18.646Z,6.60
2023-03-21T05:33:45.648Z,6.50
2023-03-21T05:36:13.191Z,6.50
2023-03-21T05:38:46.012Z,6.50
2023-03-21T05:41:19.286Z,6.60
2023-03-21T05:43:46.399Z,6.60
2023-03-21T05:46:13.322Z,6.60
2023-03-21T05:48:40.066Z,6.50
2023-03-21T05:51:07.063Z,6.60
2023-03-21T05:53:33.826Z,6.60
2023-03-21T05:56:00.653Z,6.60
2023-03-21T05:58:27.392Z,6.60
2023-03-21T06:00:54.617Z,6.70
2023-03-21T06:03:21.334Z,6.70
2023-03-21T06:05:48.076Z,6.70
2023-03-21T06:08:14.818Z,6.70
2023-03-21T06:10:41.578Z,6.80
2023-03-21T06:13:08.551Z,6.80
2023-03-21T06:15:35.518Z,6.90
2023-03-21T06:18:02.515Z,6.80
2023-03-21T06:20:29.307Z,6.80
2023-03-21T06:22:55.999Z,6.90
2023-03-21T06:25:22.707Z,6.90
2023-03-21T06:27:49.423Z,7.00
2023-03-21T06:30:16.813Z,7.10
2023-03-21T06:32:43.793Z,7.10
2023-03-21T06:35:10.647Z,7.20
2023-03-21T06:37:38.349Z,7.20
2023-03-21T06:40:07.838Z,7.20
2023-03-21T06:42:34.673Z,7.30
2023-03-21T06:45:01.595Z,7.30
2023-03-21T06:47:28.406Z,7.30
2023-03-21T06:49:55.180Z,7.40
2023-03-21T06:52:21.945Z,7.40
2023-03-21T06:54:48.666Z,7.40
2023-03-21T06:57:15.441Z,7.40
2023-03-21T06:59:42.132Z,7.50
2023-03-21T07:02:11.276Z,7.60
2023-03-21T07:04:38.102Z,7.60
2023-03-21T07:07:04.932Z,7.70
2023-03-21T07:09:31.636Z,7.80
2023-03-21T07:11:58.452Z,7.80
2023-03-21T07:14:25.592Z,7.90
2023-03-21T07:16:52.532Z,8.00
2023-03-21T07:19:19.414Z,7.90
2023-03-21T07:21:46.340Z,7.90
2023-03-21T07:24:13.140Z,8.00
2023-03-21T07:26:39.941Z,8.00
2023-03-21T07:29:06.846Z,8.10
2023-03-21T07:31:33.652Z,8.10
2023-03-21T07:34:00.679Z,8.10
2023-03-21T07:36:28.172Z,8.20
2023-03-21T07:38:55.033Z,8.20
2023-03-21T07:41:21.825Z,8.30
2023-03-21T07:43:48.609Z,8.30
2023-03-21T07:46:15.437Z,8.30
2023-03-21T07:48:42.282Z,8.50
2023-03-21T07:51:09.651Z,8.50
2023-03-21T07:53:36.400Z,8.50
2023-03-21T07:56:04.139Z,8.60
2023-03-21T07:58:30.852Z,8.70
2023-03-21T08:00:58.902Z,8.80
2023-03-21T08:03:29.235Z,8.80
2023-03-21T08:05:56.037Z,8.80
2023-03-21T08:08:22.876Z,8.80
2023-03-21T08:10:49.556Z,8.90
2023-03-21T08:13:16.304Z,9.00
2023-03-21T08:15:43.328Z,9.10
2023-03-21T08:18:11.427Z,9.20
2023-03-21T08:20:38.756Z,9.20
2023-03-21T08:23:05.523Z,9.20
2023-03-21T08:25:32.767Z,9.30
2023-03-21T08:27:59.650Z,9.30
2023-03-21T08:30:28.974Z,9.40
2023-03-21T08:33:01.297Z,9.40
2023-03-21T08:35:28.574Z,9.50
2023-03-21T08:37:55.348Z,9.50
2023-03-21T08:40:22.142Z,9.50
2023-03-21T08:42:49.005Z,9.50
2023-03-21T08:45:17.481Z,9.60
2023-03-21T08:47:44.696Z,9.70
2023-03-21T08:50:15.566Z,9.70
2023-03-21T08:52:42.568Z,9.80
2023-03-21T08:55:10.052Z,9.80
2023-03-21T08:57:37.000Z,9.80
2023-03-21T09:00:15.631Z,9.90
2023-03-21T09:02:43.649Z,9.90
2023-03-21T09:05:14.663Z,10.00
2023-03-21T09:07:42.144Z,10.10
2023-03-21T09:10:21.187Z,10.20
2023-03-21T09:12:53.778Z,10.30
2023-03-21T09:15:24.386Z,10.30
2023-03-21T09:17:57.015Z,10.30
2023-03-21T09:20:31.097Z,10.40
2023-03-21T09:22:59.436Z,10.50
2023-03-21T09:25:35.178Z,10.60
2023-03-21T09:28:05.316Z,10.70
2023-03-21T09:30:36.595Z,10.80
2023-03-21T09:33:06.528Z,10.80
2023-03-21T09:35:33.449Z,10.80
2023-03-21T09:38:01.360Z,10.90
2023-03-21T09:40:35.031Z,11.00
2023-03-21T09:43:26.372Z,11.10
2023-03-21T09:46:10.317Z,11.20
2023-03-21T09:48:57.235Z,11.30
2023-03-21T09:51:28.488Z,11.30
2023-03-21T09:53:57.632Z,11.40
2023-03-21T09:56:26.233Z,11.50
2023-03-21T09:58:56.830Z,11.50
2023-03-21T10:01:33.164Z,11.60
2023-03-21T10:04:06.418Z,11.60
2023-03-21T10:06:40.378Z,11.70
2023-03-21T10:09:15.119Z,11.70
2023-03-21T10:11:50.303Z,11.80
2023-03-21T10:14:25.585Z,11.90
2023-03-21T10:16:57.160Z,11.90
2023-03-21T10:19:24.614Z,11.90
2023-03-21T10:22:00.615Z,12.00
2023-03-21T10:24:29.426Z,12.20
2023-03-21T10:26:57.085Z,12.20
2023-03-21T10:29:37.020Z,12.30
2023-03-21T10:32:04.192Z,12.40
2023-03-21T10:34:36.553Z,12.40
2023-03-21T10:37:05.457Z,12.60
2023-03-21T10:39:41.516Z,12.70
2023-03-21T10:42:25.104Z,12.80
2023-03-21T10:44:54.162Z,12.90
2023-03-21T10:47:24.606Z,13.00
2023-03-21T10:50:09.026Z,13.20
2023-03-21T10:52:41.882Z,13.30
2023-03-21T10:55:30.192Z,13.50
2023-03-21T10:58:02.425Z,13.60
2023-03-21T11:00:35.659Z,13.70
2023-03-21T11:03:03.657Z,13.80
2023-03-21T11:05:39.365Z,13.80
2023-03-21T11:08:15.553Z,14.00
2023-03-21T11:10:53.993Z,14.00
2023-03-21T11:13:27.530Z,14.00
2023-03-21T11:15:58.741Z,14.20
2023-03-21T11:18:27.528Z,14.40
2023-03-21T11:21:02.396Z,14.40
2023-03-21T11:23:32.105Z,14.50
2023-03-21T11:26:02.874Z,14.60
2023-03-21T11:28:37.493Z,14.60
2023-03-21T11:31:05.905Z,14.60
2023-03-21T11:33:38.513Z,14.70
2023-03-21T11:36:24.232Z,14.80
2023-03-21T11:38:59.058Z,14.90
2023-03-21T11:41:34.174Z,14.90
2023-03-21T11:44:02.765Z,15.20
2023-03-21T11:46:40.788Z,15.20
2023-03-21T11:49:09.543Z,15.40
2023-03-21T11:52:32.428Z,15.50
2023-03-21T11:55:32.502Z,15.50
2023-03-21T11:58:14.628Z,15.60
2023-03-21T12:00:54.800Z,15.50
2023-03-21T12:03:54.832Z,15.50
2023-03-21T12:06:55.050Z,15.60
2023-03-21T12:09:36.412Z,15.50
2023-03-21T12:12:39.202Z,15.50
2023-03-21T12:15:18.726Z,15.50
2023-03-21T12:18:15.129Z,15.60
2023-03-21T12:21:20.977Z,15.40
2023-03-21T12:23:57.047Z,15.50
2023-03-21T12:26:31.327Z,15.60
2023-03-21T12:29:16.410Z,15.50
2023-03-21T12:32:16.203Z,15.50
2023-03-21T12:35:06.793Z,15.50
2023-03-21T12:37:41.339Z,15.60
2023-03-21T12:40:34.091Z,15.60
2023-03-21T12:43:22.911Z,15.60
2023-03-21T12:45:54.534Z,15.50
2023-03-21T12:48:34.454Z,15.60
2023-03-21T12:51:03.906Z,15.70
2023-03-21T12:53:36.820Z,15.60
2023-03-21T12:56:09.384Z,15.60
2023-03-21T12:58:49.896Z,15.60
2023-03-21T13:01:19.837Z,15.70
2023-03-21T13:04:20.269Z,15.60
2023-03-21T13:06:49.408Z,15.60
2023-03-21T13:09:36.784Z,15.60
2023-03-21T13:12:30.603Z,15.60
2023-03-21T13:15:18.359Z,15.60
2023-03-21T13:18:06.343Z,15.70
2023-03-21T13:20:44.996Z,15.70
2023-03-21T13:23:13.566Z,15.70
2023-03-21T13:25:47.690Z,15.60
2023-03-21T13:28:28.936Z,15.50
2023-03-21T13:31:24.831Z,15.50
2023-03-21T13:33:54.196Z,15.40
2023-03-21T13:36:28.161Z,15.50
2023-03-21T13:39:04.378Z,15.40
2023-03-21T13:41:40.725Z,15.30
2023-03-21T13:44:20.937Z,15.30
2023-03-21T13:46:56.310Z,15.40
2023-03-21T13:49:32.886Z,15.40
2023-03-21T13:52:03.326Z,15.40
2023-03-21T13:54:39.137Z,15.40
2023-03-21T13:57:07.334Z,15.30
2023-03-21T13:59:43.096Z,15.30
2023-03-21T14:02:32.673Z,15.30
2023-03-21T14:05:20.628Z,15.30
2023-03-21T14:07:52.874Z,15.30
2023-03-21T14:10:36.970Z,15.30
2023-03-21T14:13:07.388Z,15.30
2023-03-21T14:15:55.011Z,15.20
2023-03-21T14:18:35.155Z,15.10
2023-03-21T14:21:34.196Z,15.20
2023-03-21T14:24:06.553Z,15.20
2023-03-21T14:26:36.293Z,15.20
2023-03-21T14:29:23.040Z,15.20
2023-03-21T14:31:52.698Z,15.10
2023-03-21T14:34:22.078Z,15.20
2023-03-21T14:36:57.523Z,15.20
2023-03-21T14:39:31.224Z,15.30
2023-03-21T14:42:07.346Z,15.40
2023-03-21T14:44:56.466Z,15.40
2023-03-21T14:47:28.640Z,15.40
2023-03-21T14:49:57.092Z,15.30
2023-03-21T14:52:32.426Z,15.40
2023-03-21T14:55:01.576Z,15.40
2023-03-21T14:57:31.514Z,15.40
2023-03-21T15:00:02.148Z,15.50
2023-03-21T15:02:35.489Z,15.40
2023-03-21T15:05:33.156Z,15.40
2023-03-21T15:08:21.959Z,15.40
2023-03-21T15:11:07.171Z,15.40
2023-03-21T15:13:54.824Z,15.40
2023-03-21T15:16:22.421Z,15.40
2023-03-21T15:18:49.861Z,15.40
2023-03-21T15:21:30.378Z,15.40
2023-03-21T15:24:04.087Z,15.40
2023-03-21T15:26:34.278Z,15.30
2023-03-21T15:29:02.395Z,15.30
2023-03-21T15:31:34.217Z,15.10
2023-03-21T15:34:01.846Z,15.10
2023-03-21T15:36:34.347Z,15.10
2023-03-21T15:39:06.482Z,15.10
2023-03-21T15:41:33.835Z,15.10
2023-03-21T15:44:01.959Z,15.10
2023-03-21T15:46:45.246Z,15.10
2023-03-21T15:49:15.073Z,15.10
2023-03-21T15:51:52.448Z,15.10
2023-03-21T15:54:27.938Z,15.10
2023-03-21T15:57:03.302Z,15.00
2023-03-21T15:59:35.099Z,15.00
2023-03-21T16:02:03.194Z,14.90
2023-03-21T16:04:30.406Z,14.80
2023-03-21T16:07:15.277Z,14.80
2023-03-21T16:09:45.384Z,14.70
2023-03-21T16:12:15.686Z,14.70
2023-03-21T16:14:43.216Z,14.70
2023-03-21T16:17:37.794Z,14.70
2023-03-21T16:20:17.506Z,14.60
2023-03-21T16:22:44.276Z,14.60
2023-03-21T16:25:11.201Z,14.60
2023-03-21T16:27:38.064Z,14.50
2023-03-21T16:30:06.728Z,14.50
2023-03-21T16:32:34.216Z,14.50
2023-03-21T16:35:01.291Z,14.50
2023-03-21T16:37:28.717Z,14.40
2023-03-21T16:39:55.645Z,14.40
2023-03-21T16:42:22.389Z,14.40
2023-03-21T16:44:49.286Z,14.40
2023-03-21T16:47:23.011Z,14.40
2023-03-21T16:49:49.988Z,14.30
2023-03-21T16:52:17.201Z,14.20
2023-03-21T16:54:44.208Z,14.20
2023-03-21T16:57:27.801Z,14.20
2023-03-21T16:59:56.003Z,14.20
2023-03-21T17:02:24.742Z,14.10
2023-03-21T17:04:51.561Z,14.10
2023-03-21T17:07:18.790Z,14.00
2023-03-21T17:09:45.508Z,14.00
2023-03-21T17:12:15.150Z,14.00
2023-03-21T17:14:43.069Z,14.00
2023-03-21T17:17:17.295Z,14.00
2023-03-21T17:19:44.144Z,14.00
2023-03-21T17:22:13.299Z,14.00
2023-03-21T17:24:41.138Z,14.00
2023-03-21T17:27:08.509Z,14.00
2023-03-21T17:29:35.371Z,14.00
2023-03-21T17:32:02.112Z,13.90
2023-03-21T17:34:28.798Z,13.90
2023-03-21T17:36:55.864Z,13.90
2023-03-21T17:39:24.968Z,13.90
2023-03-21T17:41:53.286Z,13.80
2023-03-21T17:44:20.933Z,13.80
2023-03-21T17:46:50.307Z,13.80
2023-03-21T17:49:18.230Z,13.80
2023-03-21T17:51:46.948Z,13.90
2023-03-21T17:54:13.758Z,13.80
2023-03-21T17:56:42.010Z,13.90
2023-03-21T17:59:12.605Z,13.80
2023-03-21T18:01:39.406Z,13.80
2023-03-21T18:04:06.361Z,13.70
2023-03-21T18:06:34.439Z,13.70
2023-03-21T18:09:06.924Z,13.60
2023-03-21T18:11:33.907Z,13.50
2023-03-21T18:14:14.300Z,13.40
2023-03-21T18:16:42.474Z,13.40
2023-03-21T18:19:15.386Z,13.40
2023-03-21T18:21:45.239Z,13.20
2023-03-21T18:24:12.890Z,13.20
2023-03-21T18:26:39.833Z,13.20
2023-03-21T18:30:13.189Z,13.10
2023-03-21T18:32:05.526Z,13.10
2023-03-21T18:34:34.152Z,13.10
2023-03-21T18:37:03.860Z,13.10
2023-03-21T18:39:31.641Z,13.00
2023-03-21T18:42:02.462Z,13.10
2023-03-21T18:44:31.255Z,13.00
2023-03-21T18:46:58.837Z,13.00
2023-03-21T18:52:12.803Z,13.10
2023-03-21T18:54:39.741Z,13.00
2023-03-21T18:57:34.964Z,13.10
2023-03-21T18:59:54.147Z,13.10
2023-03-21T19:02:21.310Z,13.00
2023-03-21T19:04:48.288Z,13.10
2023-03-21T19:07:15.570Z,13.00
2023-03-21T19:10:05.254Z,13.00
2023-03-21T19:12:29.464Z,13.10
2023-03-21T19:14:56.679Z,13.10
2023-03-21T19:18:19.340Z,13.10
2023-03-21T19:20:13.980Z,13.00
2023-03-21T19:22:41.388Z,13.00
2023-03-21T19:25:09.309Z,12.90
2023-03-21T19:27:37.475Z,12.90
2023-03-21T19:30:14.319Z,12.60
2023-03-21T19:32:42.356Z,12.50
2023-03-21T19:35:09.611Z,12.40
2023-03-21T19:37:36.763Z,12.40
2023-03-21T19:40:05.821Z,12.40
2023-03-21T19:42:33.133Z,12.40
2023-03-21T19:44:59.981Z,12.50
2023-03-21T19:47:27.078Z,12.50
2023-03-21T19:50:42.115Z,12.50
2023-03-21T19:52:42.133Z,12.60
2023-03-21T19:55:10.753Z,12.70
2023-03-21T19:57:37.494Z,12.70
2023-03-21T20:00:04.838Z,12.70
2023-03-21T20:02:36.618Z,12.50
2023-03-21T20:05:05.229Z,12.40
2023-03-21T20:07:32.958Z,12.50
2023-03-21T20:09:59.997Z,12.50
2023-03-21T20:12:27.518Z,12.30
2023-03-21T20:15:07.240Z,12.30
2023-03-21T20:17:42.652Z,12.30
2023-03-21T20:20:18.523Z,12.30
2023-03-21T20:23:07.993Z,12.10
2023-03-21T20:25:35.778Z,12.20
2023-03-21T20:28:25.502Z,12.10
2023-03-21T20:30:53.401Z,12.10
2023-03-21T20:33:20.228Z,12.00
2023-03-21T20:36:32.183Z,12.00
2023-03-21T20:38:34.342Z,12.10
2023-03-21T20:41:02.898Z,12.00
2023-03-21T20:46:17.534Z,12.10
2023-03-21T20:48:48.706Z,12.00
2023-03-21T20:52:26.898Z,11.90
2023-03-21T20:54:02.262Z,11.90
2023-03-21T20:56:30.455Z,12.00
2023-03-21T20:59:12.138Z,11.90
2023-03-21T21:01:43.059Z,12.00
2023-03-21T21:04:10.318Z,12.00
2023-03-21T21:06:37.152Z,11.90
2023-03-21T21:09:04.403Z,11.90
2023-03-21T21:14:17.790Z,11.70
2023-03-21T21:16:44.971Z,11.70
2023-03-21T21:19:11.773Z,11.70
2023-03-21T21:21:38.692Z,11.70
2023-03-21T21:24:07.699Z,11.50
2023-03-21T21:26:35.294Z,11.40
2023-03-21T21:29:02.146Z,11.50
2023-03-21T21:31:28.866Z,11.60
2023-03-21T21:33:55.713Z,11.70
2023-03-21T21:36:22.720Z,11.60
2023-03-21T21:38:49.593Z,11.60
2023-03-21T21:41:19.890Z,11.50
2023-03-21T21:43:47.597Z,11.50
2023-03-21T21:46:15.198Z,11.50
2023-03-21T21:48:43.300Z,11.60
2023-03-21T21:51:10.350Z,11.60
2023-03-21T21:53:38.879Z,11.40
2023-03-21T21:56:06.362Z,11.30
2023-03-21T21:58:33.838Z,11.10
2023-03-21T22:01:04.511Z,11.00
2023-03-21T22:03:36.594Z,10.90
2023-03-21T22:06:04.534Z,10.90
2023-03-21T22:08:31.490Z,10.90
2023-03-21T22:11:00.672Z,10.80
2023-03-21T22:13:27.803Z,10.90
2023-03-21T22:15:55.028Z,10.80
2023-03-21T22:18:22.257Z,10.70
2023-03-21T22:20:49.200Z,10.60
2023-03-21T22:23:16.152Z,10.40
2023-03-21T22:25:48.424Z,10.40
2023-03-21T22:28:17.765Z,10.10
2023-03-21T22:30:44.561Z,10.20
2023-03-21T22:33:11.233Z,10.30
2023-03-21T22:35:38.118Z,10.40
2023-03-21T22:38:04.943Z,10.40
2023-03-21T22:40:31.771Z,10.50
2023-03-21T22:42:58.532Z,10.60
2023-03-21T22:45:25.673Z,10.60
2023-03-21T22:47:52.383Z,10.70
2023-03-21T22:50:19.130Z,10.60
2023-03-21T22:52:46.006Z,10.80
2023-03-21T22:55:14.294Z,10.70
2023-03-21T22:57:41.004Z,10.70
2023-03-21T23:00:13.561Z,10.80
2023-03-21T23:02:41.515Z,10.80
2023-03-21T23:05:09.762Z,10.80
2023-03-21T23:07:36.557Z,10.90
2023-03-21T23:10:05.136Z,11.10
2023-03-21T23:12:32.728Z,11.20
2023-03-21T23:15:00.824Z,11.20
2023-03-21T23:17:28.758Z,11.10
2023-03-21T23:19:55.583Z,11.10
2023-03-21T23:22:22.320Z,11.20
2023-03-21T23:24:49.103Z,11.20
2023-03-21T23:27:18.165Z,11.20
2023-03-21T23:29:45.405Z,11.10
2023-03-21T23:32:12.172Z,11.10
2023-03-21T23:34:38.967Z,11.10
2023-03-21T23:37:06.975Z,11.10
2023-03-21T23:39:34.435Z,11.10
2023-03-21T23:42:01.432Z,11.10
2023-03-21T23:44:28.180Z,11.20
2023-03-21T23:46:55.554Z,11.10
2023-03-21T23:49:22.225Z,11.10
2023-03-21T23:51:50.057Z,11.00
2023-03-21T23:54:16.812Z,11.00
2023-03-21T23:56:43.934Z,11.00
2023-03-21T23:59:10.637Z,10.90
